sensor_id;sensor_type;location;lat;lon;timestamp;pressure;altitude;pressure_sealevel;temperature;humidity
73518;BME280;61766;60.318;25.044;2023-07-22T00:01:38;100182.02;;;17.82;45.14
73518;BME280;61766;60.318;25.044;2023-07-22T00:04:04;100183.21;;;17.55;45.91
73518;BME280;61766;60.318;25.044;2023-07-22T00:06:29;100181.18;;;17.30;47.25
73518;BME280;61766;60.318;25.044;2023-07-22T00:08:55;100186.35;;;16.96;48.06
73518;BME280;61766;60.318;25.044;2023-07-22T00:11:20;100183.28;;;17.56;46.79
73518;BME280;61766;60.318;25.044;2023-07-22T00:13:46;100185.42;;;17.66;46.43
73518;BME280;61766;60.318;25.044;2023-07-22T00:16:12;100187.89;;;17.91;45.79
73518;BME280;61766;60.318;25.044;2023-07-22T00:18:37;100187.71;;;17.81;45.65
73518;BME280;61766;60.318;25.044;2023-07-22T00:21:03;100193.43;;;17.70;45.90
73518;BME280;61766;60.318;25.044;2023-07-22T00:23:29;100194.39;;;18.14;45.40
73518;BME280;61766;60.318;25.044;2023-07-22T00:25:54;100192.51;;;17.85;45.04
73518;BME280;61766;60.318;25.044;2023-07-22T00:28:20;100193.62;;;18.28;44.81
73518;BME280;61766;60.318;25.044;2023-07-22T00:30:46;100194.71;;;18.32;44.36
73518;BME280;61766;60.318;25.044;2023-07-22T00:33:11;100196.73;;;18.25;44.02
73518;BME280;61766;60.318;25.044;2023-07-22T00:35:37;100194.23;;;18.23;44.06
73518;BME280;61766;60.318;25.044;2023-07-22T00:38:03;100198.16;;;18.52;44.11
73518;BME280;61766;60.318;25.044;2023-07-22T00:40:29;100195.11;;;18.25;44.02
73518;BME280;61766;60.318;25.044;2023-07-22T00:42:55;100195.52;;;18.24;43.81
73518;BME280;61766;60.318;25.044;2023-07-22T00:45:20;100198.01;;;18.33;43.67
73518;BME280;61766;60.318;25.044;2023-07-22T00:47:46;100196.05;;;18.73;43.03
73518;BME280;61766;60.318;25.044;2023-07-22T00:50:12;100193.80;;;18.65;42.72
73518;BME280;61766;60.318;25.044;2023-07-22T00:52:38;100193.34;;;18.65;42.38
73518;BME280;61766;60.318;25.044;2023-07-22T00:55:04;100195.79;;;18.72;42.41
73518;BME280;61766;60.318;25.044;2023-07-22T00:57:29;100192.14;;;18.67;43.03
73518;BME280;61766;60.318;25.044;2023-07-22T00:59:55;100192.29;;;18.40;43.08
73518;BME280;61766;60.318;25.044;2023-07-22T01:02:21;100194.16;;;18.52;42.27
73518;BME280;61766;60.318;25.044;2023-07-22T01:04:46;100189.34;;;18.37;42.34
73518;BME280;61766;60.318;25.044;2023-07-22T01:07:12;100190.76;;;18.66;41.98
73518;BME280;61766;60.318;25.044;2023-07-22T01:09:39;100192.48;;;18.58;41.87
73518;BME280;61766;60.318;25.044;2023-07-22T01:12:04;100191.42;;;18.42;41.43
73518;BME280;61766;60.318;25.044;2023-07-22T01:14:29;100190.77;;;18.56;41.09
73518;BME280;61766;60.318;25.044;2023-07-22T01:16:55;100194.13;;;18.61;40.69
73518;BME280;61766;60.318;25.044;2023-07-22T01:19:22;100192.66;;;18.55;40.65
73518;BME280;61766;60.318;25.044;2023-07-22T01:21:47;100192.52;;;18.55;40.31
73518;BME280;61766;60.318;25.044;2023-07-22T01:24:13;100191.99;;;18.46;40.38
73518;BME280;61766;60.318;25.044;2023-07-22T01:26:39;100192.60;;;18.40;40.37
73518;BME280;61766;60.318;25.044;2023-07-22T01:29:06;100193.44;;;18.61;40.40
73518;BME280;61766;60.318;25.044;2023-07-22T01:31:30;100195.65;;;18.31;40.28
73518;BME280;61766;60.318;25.044;2023-07-22T01:33:56;100197.43;;;18.25;40.07
73518;BME280;61766;60.318;25.044;2023-07-22T01:36:21;100198.11;;;18.19;40.14
73518;BME280;61766;60.318;25.044;2023-07-22T01:38:47;100196.06;;;18.17;39.92
73518;BME280;61766;60.318;25.044;2023-07-22T01:41:13;100196.61;;;18.15;39.73
73518;BME280;61766;60.318;25.044;2023-07-22T01:43:39;100199.21;;;18.18;39.39
73518;BME280;61766;60.318;25.044;2023-07-22T01:46:04;100199.79;;;18.24;39.66
73518;BME280;61766;60.318;25.044;2023-07-22T01:48:30;100200.98;;;18.06;39.78
73518;BME280;61766;60.318;25.044;2023-07-22T01:50:56;100202.90;;;18.05;39.69
73518;BME280;61766;60.318;25.044;2023-07-22T01:53:22;100202.41;;;17.98;39.65
73518;BME280;61766;60.318;25.044;2023-07-22T01:55:48;100202.24;;;17.95;39.62
73518;BME280;61766;60.318;25.044;2023-07-22T01:58:14;100201.17;;;17.88;39.85
73518;BME280;61766;60.318;25.044;2023-07-22T02:00:39;100199.14;;;17.63;39.73
73518;BME280;61766;60.318;25.044;2023-07-22T02:03:05;100200.63;;;17.93;39.56
73518;BME280;61766;60.318;25.044;2023-07-22T02:05:31;100201.31;;;17.91;39.62
73518;BME280;61766;60.318;25.044;2023-07-22T02:07:57;100200.59;;;17.70;39.74
73518;BME280;61766;60.318;25.044;2023-07-22T02:10:23;100199.95;;;17.95;39.75
73518;BME280;61766;60.318;25.044;2023-07-22T02:12:48;100195.45;;;17.68;39.71
73518;BME280;61766;60.318;25.044;2023-07-22T02:15:14;100198.00;;;17.47;39.83
73518;BME280;61766;60.318;25.044;2023-07-22T02:17:40;100196.28;;;17.75;39.81
73518;BME280;61766;60.318;25.044;2023-07-22T02:20:07;100195.82;;;17.78;39.62
73518;BME280;61766;60.318;25.044;2023-07-22T02:22:32;100199.16;;;17.86;39.68
73518;BME280;61766;60.318;25.044;2023-07-22T02:24:57;100199.50;;;18.03;39.76
73518;BME280;61766;60.318;25.044;2023-07-22T02:27:23;100201.08;;;17.73;39.73
73518;BME280;61766;60.318;25.044;2023-07-22T02:29:49;100199.98;;;17.70;39.68
73518;BME280;61766;60.318;25.044;2023-07-22T02:32:15;100195.82;;;17.77;40.13
73518;BME280;61766;60.318;25.044;2023-07-22T02:34:41;100195.60;;;17.49;40.13
73518;BME280;61766;60.318;25.044;2023-07-22T02:37:07;100200.81;;;17.50;40.24
73518;BME280;61766;60.318;25.044;2023-07-22T02:39:32;100198.45;;;17.72;40.14
73518;BME280;61766;60.318;25.044;2023-07-22T02:41:58;100201.02;;;17.46;40.22
73518;BME280;61766;60.318;25.044;2023-07-22T02:44:24;100201.73;;;17.52;40.13
73518;BME280;61766;60.318;25.044;2023-07-22T02:46:50;100202.98;;;17.84;40.01
73518;BME280;61766;60.318;25.044;2023-07-22T02:49:16;100202.06;;;17.84;41.58
73518;BME280;61766;60.318;25.044;2023-07-22T02:51:42;100198.90;;;17.73;41.25
73518;BME280;61766;60.318;25.044;2023-07-22T02:54:08;100199.34;;;17.79;40.76
73518;BME280;61766;60.318;25.044;2023-07-22T02:56:33;100201.69;;;17.93;41.35
73518;BME280;61766;60.318;25.044;2023-07-22T02:58:59;100200.41;;;17.90;41.63
73518;BME280;61766;60.318;25.044;2023-07-22T03:01:25;100197.17;;;17.93;41.70
73518;BME280;61766;60.318;25.044;2023-07-22T03:03:50;100197.03;;;17.78;41.26
73518;BME280;61766;60.318;25.044;2023-07-22T03:06:17;100195.52;;;17.88;41.29
73518;BME280;61766;60.318;25.044;2023-07-22T03:08:42;100192.99;;;18.06;41.36
73518;BME280;61766;60.318;25.044;2023-07-22T03:11:07;100190.21;;;17.86;41.18
73518;BME280;61766;60.318;25.044;2023-07-22T03:13:33;100194.28;;;18.24;41.26
73518;BME280;61766;60.318;25.044;2023-07-22T03:15:59;100197.70;;;18.07;41.39
73518;BME280;61766;60.318;25.044;2023-07-22T03:18:25;100193.71;;;18.21;41.45
73518;BME280;61766;60.318;25.044;2023-07-22T03:20:51;100195.04;;;18.00;42.24
73518;BME280;61766;60.318;25.044;2023-07-22T03:23:17;100195.77;;;18.38;42.93
73518;BME280;61766;60.318;25.044;2023-07-22T03:25:42;100196.15;;;18.28;43.88
73518;BME280;61766;60.318;25.044;2023-07-22T03:28:09;100196.61;;;17.64;46.86
73518;BME280;61766;60.318;25.044;2023-07-22T03:30:34;100190.65;;;17.60;47.40
73518;BME280;61766;60.318;25.044;2023-07-22T03:33:00;100197.19;;;17.05;48.90
73518;BME280;61766;60.318;25.044;2023-07-22T03:35:25;100192.07;;;17.05;49.21
73518;BME280;61766;60.318;25.044;2023-07-22T03:37:51;100188.81;;;16.88;49.61
73518;BME280;61766;60.318;25.044;2023-07-22T03:40:17;100192.51;;;16.94;49.78
73518;BME280;61766;60.318;25.044;2023-07-22T03:42:43;100194.04;;;17.44;48.70
73518;BME280;61766;60.318;25.044;2023-07-22T03:45:09;100194.32;;;17.16;49.66
73518;BME280;61766;60.318;25.044;2023-07-22T03:47:34;100191.89;;;17.24;49.05
73518;BME280;61766;60.318;25.044;2023-07-22T03:50:00;100192.78;;;17.60;48.81
73518;BME280;61766;60.318;25.044;2023-07-22T03:52:26;100194.96;;;17.51;49.34
73518;BME280;61766;60.318;25.044;2023-07-22T03:54:51;100195.67;;;17.66;49.43
73518;BME280;61766;60.318;25.044;2023-07-22T03:57:17;100194.90;;;17.71;49.11
73518;BME280;61766;60.318;25.044;2023-07-22T03:59:43;100194.62;;;17.75;49.25
73518;BME280;61766;60.318;25.044;2023-07-22T04:02:08;100194.27;;;17.37;49.92
73518;BME280;61766;60.318;25.044;2023-07-22T04:04:34;100197.42;;;17.77;49.21
73518;BME280;61766;60.318;25.044;2023-07-22T04:07:00;100202.40;;;17.95;49.20
73518;BME280;61766;60.318;25.044;2023-07-22T04:09:26;100205.17;;;17.54;49.73
73518;BME280;61766;60.318;25.044;2023-07-22T04:11:52;100206.84;;;17.94;49.13
73518;BME280;61766;60.318;25.044;2023-07-22T04:14:17;100203.79;;;17.87;49.32
73518;BME280;61766;60.318;25.044;2023-07-22T04:16:43;100202.54;;;18.28;48.43
73518;BME280;61766;60.318;25.044;2023-07-22T04:19:09;100205.13;;;18.33;48.10
73518;BME280;61766;60.318;25.044;2023-07-22T04:21:35;100203.86;;;18.22;48.68
73518;BME280;61766;60.318;25.044;2023-07-22T04:24:01;100205.02;;;18.17;48.66
73518;BME280;61766;60.318;25.044;2023-07-22T04:26:26;100207.27;;;18.55;47.89
73518;BME280;61766;60.318;25.044;2023-07-22T04:28:52;100207.64;;;18.05;48.97
73518;BME280;61766;60.318;25.044;2023-07-22T04:31:18;100206.16;;;18.47;48.51
73518;BME280;61766;60.318;25.044;2023-07-22T04:33:43;100208.80;;;18.36;48.62
73518;BME280;61766;60.318;25.044;2023-07-22T04:36:09;100208.67;;;18.43;48.50
73518;BME280;61766;60.318;25.044;2023-07-22T04:38:35;100212.03;;;18.40;48.35
73518;BME280;61766;60.318;25.044;2023-07-22T04:41:02;100211.42;;;18.38;47.66
73518;BME280;61766;60.318;25.044;2023-07-22T04:43:27;100212.45;;;19.16;46.80
73518;BME280;61766;60.318;25.044;2023-07-22T04:45:52;100213.08;;;18.67;47.40
73518;BME280;61766;60.318;25.044;2023-07-22T04:48:19;100214.94;;;19.09;47.95
73518;BME280;61766;60.318;25.044;2023-07-22T04:50:44;100216.66;;;18.28;48.36
73518;BME280;61766;60.318;25.044;2023-07-22T04:53:10;100214.74;;;18.29;47.69
73518;BME280;61766;60.318;25.044;2023-07-22T04:55:35;100214.86;;;18.75;47.28
73518;BME280;61766;60.318;25.044;2023-07-22T04:58:01;100211.58;;;19.20;46.45
73518;BME280;61766;60.318;25.044;2023-07-22T05:00:27;100209.95;;;19.15;46.25
73518;BME280;61766;60.318;25.044;2023-07-22T05:02:53;100209.74;;;19.35;46.49
73518;BME280;61766;60.318;25.044;2023-07-22T05:05:19;100208.89;;;19.37;45.26
73518;BME280;61766;60.318;25.044;2023-07-22T05:07:44;100216.04;;;19.40;45.98
73518;BME280;61766;60.318;25.044;2023-07-22T05:10:11;100218.30;;;18.83;46.04
73518;BME280;61766;60.318;25.044;2023-07-22T05:12:36;100216.61;;;19.48;45.42
73518;BME280;61766;60.318;25.044;2023-07-22T05:15:01;100214.38;;;19.32;45.24
73518;BME280;61766;60.318;25.044;2023-07-22T05:17:27;100208.96;;;19.61;44.10
73518;BME280;61766;60.318;25.044;2023-07-22T05:19:53;100210.28;;;19.78;44.24
73518;BME280;61766;60.318;25.044;2023-07-22T05:22:19;100210.71;;;19.82;43.20
73518;BME280;61766;60.318;25.044;2023-07-22T05:24:45;100214.43;;;19.74;44.64
73518;BME280;61766;60.318;25.044;2023-07-22T05:27:10;100214.12;;;19.56;44.86
73518;BME280;61766;60.318;25.044;2023-07-22T05:29:36;100217.95;;;19.46;44.45
73518;BME280;61766;60.318;25.044;2023-07-22T05:32:01;100211.82;;;19.35;45.16
73518;BME280;61766;60.318;25.044;2023-07-22T05:34:27;100211.80;;;19.37;46.07
73518;BME280;61766;60.318;25.044;2023-07-22T05:36:53;100216.55;;;19.35;45.59
73518;BME280;61766;60.318;25.044;2023-07-22T05:39:19;100214.50;;;19.31;45.52
73518;BME280;61766;60.318;25.044;2023-07-22T05:41:44;100220.25;;;19.07;45.79
73518;BME280;61766;60.318;25.044;2023-07-22T05:44:10;100217.64;;;18.93;45.61
73518;BME280;61766;60.318;25.044;2023-07-22T05:46:36;100213.17;;;19.38;44.39
73518;BME280;61766;60.318;25.044;2023-07-22T05:49:01;100214.16;;;20.20;44.04
73518;BME280;61766;60.318;25.044;2023-07-22T05:51:27;100217.29;;;19.42;44.44
73518;BME280;61766;60.318;25.044;2023-07-22T05:53:53;100211.01;;;19.96;43.88
73518;BME280;61766;60.318;25.044;2023-07-22T05:56:19;100216.59;;;19.80;43.49
73518;BME280;61766;60.318;25.044;2023-07-22T05:58:44;100216.56;;;19.62;43.61
73518;BME280;61766;60.318;25.044;2023-07-22T06:01:10;100210.10;;;20.19;44.19
73518;BME280;61766;60.318;25.044;2023-07-22T06:03:36;100210.77;;;20.54;42.18
73518;BME280;61766;60.318;25.044;2023-07-22T06:06:02;100208.78;;;20.83;41.37
73518;BME280;61766;60.318;25.044;2023-07-22T06:08:27;100208.15;;;21.25;41.71
73518;BME280;61766;60.318;25.044;2023-07-22T06:10:53;100206.84;;;21.68;39.87
73518;BME280;61766;60.318;25.044;2023-07-22T06:13:19;100203.15;;;21.32;41.67
73518;BME280;61766;60.318;25.044;2023-07-22T06:15:44;100199.75;;;21.64;40.76
73518;BME280;61766;60.318;25.044;2023-07-22T06:18:10;100197.44;;;22.09;39.36
73518;BME280;61766;60.318;25.044;2023-07-22T06:20:36;100199.22;;;22.73;38.97
73518;BME280;61766;60.318;25.044;2023-07-22T06:23:02;100198.39;;;23.07;36.57
73518;BME280;61766;60.318;25.044;2023-07-22T06:25:27;100202.39;;;22.37;37.38
73518;BME280;61766;60.318;25.044;2023-07-22T06:27:53;100199.96;;;22.50;36.05
73518;BME280;61766;60.318;25.044;2023-07-22T06:30:19;100200.36;;;22.80;35.47
73518;BME280;61766;60.318;25.044;2023-07-22T06:32:44;100196.62;;;22.33;37.39
73518;BME280;61766;60.318;25.044;2023-07-22T06:35:10;100193.10;;;22.12;37.93
73518;BME280;61766;60.318;25.044;2023-07-22T06:37:36;100193.16;;;22.32;37.06
73518;BME280;61766;60.318;25.044;2023-07-22T06:40:02;100192.40;;;21.79;38.01
73518;BME280;61766;60.318;25.044;2023-07-22T06:42:27;100189.65;;;22.08;38.03
73518;BME280;61766;60.318;25.044;2023-07-22T06:44:53;100192.32;;;22.65;36.13
73518;BME280;61766;60.318;25.044;2023-07-22T06:47:18;100190.09;;;22.34;35.88
73518;BME280;61766;60.318;25.044;2023-07-22T06:49:45;100188.83;;;21.71;37.26
73518;BME280;61766;60.318;25.044;2023-07-22T06:52:10;100190.20;;;21.73;38.56
73518;BME280;61766;60.318;25.044;2023-07-22T06:54:36;100195.17;;;22.06;37.45
73518;BME280;61766;60.318;25.044;2023-07-22T06:57:01;100194.80;;;21.82;37.39
73518;BME280;61766;60.318;25.044;2023-07-22T06:59:27;100188.37;;;22.00;38.27
73518;BME280;61766;60.318;25.044;2023-07-22T07:01:53;100189.11;;;22.61;36.70
73518;BME280;61766;60.318;25.044;2023-07-22T07:04:18;100191.84;;;23.10;33.92
73518;BME280;61766;60.318;25.044;2023-07-22T07:06:44;100191.20;;;22.94;33.83
73518;BME280;61766;60.318;25.044;2023-07-22T07:09:10;100188.18;;;23.52;34.51
73518;BME280;61766;60.318;25.044;2023-07-22T07:11:35;100190.92;;;23.08;32.89
73518;BME280;61766;60.318;25.044;2023-07-22T07:14:01;100187.97;;;23.11;32.28
73518;BME280;61766;60.318;25.044;2023-07-22T07:16:28;100188.40;;;22.99;32.57
73518;BME280;61766;60.318;25.044;2023-07-22T07:18:52;100190.39;;;23.33;33.44
73518;BME280;61766;60.318;25.044;2023-07-22T07:21:18;100188.40;;;23.50;32.14
73518;BME280;61766;60.318;25.044;2023-07-22T07:23:44;100185.09;;;24.11;31.86
73518;BME280;61766;60.318;25.044;2023-07-22T07:26:09;100183.47;;;24.67;30.59
73518;BME280;61766;60.318;25.044;2023-07-22T07:28:35;100188.08;;;22.79;30.84
73518;BME280;61766;60.318;25.044;2023-07-22T07:31:01;100186.67;;;23.68;33.33
73518;BME280;61766;60.318;25.044;2023-07-22T07:33:26;100190.71;;;23.91;29.59
73518;BME280;61766;60.318;25.044;2023-07-22T07:35:52;100188.21;;;23.37;29.92
73518;BME280;61766;60.318;25.044;2023-07-22T07:38:18;100186.84;;;23.09;30.64
73518;BME280;61766;60.318;25.044;2023-07-22T07:40:43;100184.39;;;22.42;31.77
73518;BME280;61766;60.318;25.044;2023-07-22T07:43:09;100188.02;;;22.47;32.13
73518;BME280;61766;60.318;25.044;2023-07-22T07:45:38;100184.88;;;22.80;31.14
73518;BME280;61766;60.318;25.044;2023-07-22T07:48:00;100186.53;;;21.83;32.93
73518;BME280;61766;60.318;25.044;2023-07-22T07:50:26;100187.42;;;22.55;30.96
73518;BME280;61766;60.318;25.044;2023-07-22T07:52:52;100189.15;;;22.52;31.99
73518;BME280;61766;60.318;25.044;2023-07-22T07:55:18;100192.21;;;23.41;32.65
73518;BME280;61766;60.318;25.044;2023-07-22T07:57:43;100194.05;;;23.66;30.23
73518;BME280;61766;60.318;25.044;2023-07-22T08:00:10;100192.50;;;23.01;30.80
73518;BME280;61766;60.318;25.044;2023-07-22T08:02:34;100184.93;;;22.60;31.74
73518;BME280;61766;60.318;25.044;2023-07-22T08:05:00;100194.42;;;22.64;32.73
73518;BME280;61766;60.318;25.044;2023-07-22T08:07:26;100190.45;;;22.29;32.20
73518;BME280;61766;60.318;25.044;2023-07-22T08:09:51;100193.41;;;22.75;30.47
73518;BME280;61766;60.318;25.044;2023-07-22T08:12:17;100193.19;;;23.65;30.38
73518;BME280;61766;60.318;25.044;2023-07-22T08:14:43;100200.23;;;23.31;31.30
73518;BME280;61766;60.318;25.044;2023-07-22T08:17:08;100197.29;;;23.68;29.48
73518;BME280;61766;60.318;25.044;2023-07-22T08:19:34;100195.87;;;22.72;31.01
73518;BME280;61766;60.318;25.044;2023-07-22T08:22:00;100200.21;;;22.72;30.41
73518;BME280;61766;60.318;25.044;2023-07-22T08:24:25;100197.58;;;22.39;29.61
73518;BME280;61766;60.318;25.044;2023-07-22T08:26:51;100199.24;;;22.29;30.39
73518;BME280;61766;60.318;25.044;2023-07-22T08:29:17;100203.22;;;22.41;30.66
73518;BME280;61766;60.318;25.044;2023-07-22T08:31:42;100202.60;;;21.80;29.93
73518;BME280;61766;60.318;25.044;2023-07-22T08:34:08;100198.46;;;22.25;31.01
73518;BME280;61766;60.318;25.044;2023-07-22T08:36:34;100199.07;;;22.88;28.84
73518;BME280;61766;60.318;25.044;2023-07-22T08:38:59;100197.92;;;23.31;28.61
73518;BME280;61766;60.318;25.044;2023-07-22T08:41:26;100194.61;;;23.46;28.35
73518;BME280;61766;60.318;25.044;2023-07-22T08:43:51;100196.47;;;22.97;28.55
73518;BME280;61766;60.318;25.044;2023-07-22T08:46:19;100192.91;;;23.62;27.85
73518;BME280;61766;60.318;25.044;2023-07-22T08:48:45;100199.92;;;23.07;28.33
73518;BME280;61766;60.318;25.044;2023-07-22T08:51:10;100207.29;;;23.33;29.45
73518;BME280;61766;60.318;25.044;2023-07-22T08:53:34;100202.22;;;23.24;29.94
73518;BME280;61766;60.318;25.044;2023-07-22T08:55:59;100196.55;;;24.03;29.38
73518;BME280;61766;60.318;25.044;2023-07-22T08:58:25;100197.84;;;24.15;26.33
73518;BME280;61766;60.318;25.044;2023-07-22T09:00:51;100187.61;;;24.22;27.66
73518;BME280;61766;60.318;25.044;2023-07-22T09:03:16;100188.68;;;25.09;27.81
73518;BME280;61766;60.318;25.044;2023-07-22T09:05:42;100188.67;;;25.81;24.67
73518;BME280;61766;60.318;25.044;2023-07-22T09:08:08;100188.13;;;25.63;24.12
73518;BME280;61766;60.318;25.044;2023-07-22T09:10:33;100191.21;;;26.20;22.91
73518;BME280;61766;60.318;25.044;2023-07-22T09:12:59;100187.86;;;26.16;22.64
73518;BME280;61766;60.318;25.044;2023-07-22T09:15:25;100192.15;;;25.39;24.08
73518;BME280;61766;60.318;25.044;2023-07-22T09:17:50;100185.20;;;25.44;24.38
73518;BME280;61766;60.318;25.044;2023-07-22T09:20:16;100179.99;;;25.79;26.46
73518;BME280;61766;60.318;25.044;2023-07-22T09:22:43;100175.94;;;25.40;24.71
73518;BME280;61766;60.318;25.044;2023-07-22T09:25:17;100191.38;;;24.86;24.10
73518;BME280;61766;60.318;25.044;2023-07-22T09:27:36;100193.02;;;25.53;23.04
73518;BME280;61766;60.318;25.044;2023-07-22T09:29:58;100196.68;;;25.25;23.86
73518;BME280;61766;60.318;25.044;2023-07-22T09:32:35;100193.39;;;25.41;23.92
73518;BME280;61766;60.318;25.044;2023-07-22T09:34:54;100196.20;;;25.05;24.10
73518;BME280;61766;60.318;25.044;2023-07-22T09:37:15;100192.19;;;25.31;23.67
73518;BME280;61766;60.318;25.044;2023-07-22T09:39:44;100190.46;;;24.91;24.52
73518;BME280;61766;60.318;25.044;2023-07-22T09:42:07;100194.10;;;25.52;24.82
73518;BME280;61766;60.318;25.044;2023-07-22T09:44:33;100196.11;;;25.35;24.53
73518;BME280;61766;60.318;25.044;2023-07-22T09:46:58;100195.90;;;25.60;24.23
73518;BME280;61766;60.318;25.044;2023-07-22T09:49:23;100198.42;;;25.34;24.98
73518;BME280;61766;60.318;25.044;2023-07-22T09:51:50;100190.78;;;25.19;24.80
73518;BME280;61766;60.318;25.044;2023-07-22T09:54:15;100198.06;;;25.13;25.97
73518;BME280;61766;60.318;25.044;2023-07-22T09:56:48;100197.57;;;25.36;23.13
73518;BME280;61766;60.318;25.044;2023-07-22T09:59:07;100193.18;;;25.43;23.62
73518;BME280;61766;60.318;25.044;2023-07-22T10:01:32;100195.00;;;25.40;22.17
73518;BME280;61766;60.318;25.044;2023-07-22T10:03:58;100193.10;;;25.37;23.10
73518;BME280;61766;60.318;25.044;2023-07-22T10:06:23;100193.21;;;24.88;24.54
73518;BME280;61766;60.318;25.044;2023-07-22T10:08:49;100190.53;;;25.27;24.04
73518;BME280;61766;60.318;25.044;2023-07-22T10:11:15;100195.86;;;24.32;25.22
73518;BME280;61766;60.318;25.044;2023-07-22T10:13:40;100199.63;;;23.92;25.53
73518;BME280;61766;60.318;25.044;2023-07-22T10:16:05;100196.59;;;24.55;25.76
73518;BME280;61766;60.318;25.044;2023-07-22T10:18:32;100198.23;;;24.37;24.61
73518;BME280;61766;60.318;25.044;2023-07-22T10:20:57;100198.91;;;24.45;25.98
73518;BME280;61766;60.318;25.044;2023-07-22T10:23:23;100203.23;;;24.73;27.16
73518;BME280;61766;60.318;25.044;2023-07-22T10:25:48;100220.58;;;22.91;29.09
73518;BME280;61766;60.318;25.044;2023-07-22T10:28:14;100206.06;;;22.73;30.16
73518;BME280;61766;60.318;25.044;2023-07-22T10:30:39;100216.34;;;22.68;30.50
73518;BME280;61766;60.318;25.044;2023-07-22T10:33:05;100226.74;;;22.10;31.36
73518;BME280;61766;60.318;25.044;2023-07-22T10:35:40;100234.00;;;21.49;31.93
73518;BME280;61766;60.318;25.044;2023-07-22T10:38:00;100231.69;;;21.03;32.62
73518;BME280;61766;60.318;25.044;2023-07-22T10:40:28;100231.97;;;21.16;32.51
73518;BME280;61766;60.318;25.044;2023-07-22T10:42:54;100234.84;;;20.72;32.08
73518;BME280;61766;60.318;25.044;2023-07-22T10:45:23;100239.68;;;20.52;32.74
73518;BME280;61766;60.318;25.044;2023-07-22T10:47:39;100239.15;;;20.69;33.33
73518;BME280;61766;60.318;25.044;2023-07-22T10:50:11;100241.87;;;20.45;33.84
73518;BME280;61766;60.318;25.044;2023-07-22T10:52:41;100238.18;;;20.47;34.62
73518;BME280;61766;60.318;25.044;2023-07-22T10:54:59;100235.33;;;21.11;33.34
73518;BME280;61766;60.318;25.044;2023-07-22T10:57:27;100239.18;;;21.07;33.88
73518;BME280;61766;60.318;25.044;2023-07-22T10:59:52;100246.25;;;21.84;32.86
73518;BME280;61766;60.318;25.044;2023-07-22T11:02:22;100245.01;;;21.33;33.81
73518;BME280;61766;60.318;25.044;2023-07-22T11:04:39;100251.55;;;20.74;34.69
73518;BME280;61766;60.318;25.044;2023-07-22T11:07:07;100254.78;;;19.79;36.43
73518;BME280;61766;60.318;25.044;2023-07-22T11:09:38;100251.92;;;20.92;35.33
73518;BME280;61766;60.318;25.044;2023-07-22T11:11:57;100252.81;;;20.55;36.18
73518;BME280;61766;60.318;25.044;2023-07-22T11:14:25;100253.72;;;20.79;36.54
73518;BME280;61766;60.318;25.044;2023-07-22T11:16:48;100266.19;;;20.27;37.49
73518;BME280;61766;60.318;25.044;2023-07-22T11:19:14;100264.87;;;20.06;37.40
73518;BME280;61766;60.318;25.044;2023-07-22T11:21:39;100266.61;;;20.24;36.98
73518;BME280;61766;60.318;25.044;2023-07-22T11:24:06;100265.59;;;20.08;37.67
73518;BME280;61766;60.318;25.044;2023-07-22T11:26:30;100264.41;;;20.24;36.83
73518;BME280;61766;60.318;25.044;2023-07-22T11:28:57;100263.06;;;20.97;36.09
73518;BME280;61766;60.318;25.044;2023-07-22T11:31:22;100264.48;;;21.11;33.96
73518;BME280;61766;60.318;25.044;2023-07-22T11:33:48;100266.65;;;21.12;34.02
73518;BME280;61766;60.318;25.044;2023-07-22T11:36:13;100264.21;;;21.23;32.75
73518;BME280;61766;60.318;25.044;2023-07-22T11:38:39;100265.58;;;21.13;33.50
73518;BME280;61766;60.318;25.044;2023-07-22T11:41:05;100269.37;;;20.80;35.19
73518;BME280;61766;60.318;25.044;2023-07-22T11:43:31;100259.12;;;20.69;35.82
73518;BME280;61766;60.318;25.044;2023-07-22T11:45:56;100257.58;;;20.83;35.55
73518;BME280;61766;60.318;25.044;2023-07-22T11:48:22;100256.52;;;20.49;36.45
73518;BME280;61766;60.318;25.044;2023-07-22T11:50:48;100259.12;;;20.58;36.11
73518;BME280;61766;60.318;25.044;2023-07-22T11:53:13;100260.81;;;21.35;35.09
73518;BME280;61766;60.318;25.044;2023-07-22T11:55:40;100264.47;;;21.22;34.65
73518;BME280;61766;60.318;25.044;2023-07-22T11:58:05;100260.71;;;21.34;34.06
73518;BME280;61766;60.318;25.044;2023-07-22T12:00:32;100258.71;;;21.27;33.63
73518;BME280;61766;60.318;25.044;2023-07-22T12:02:56;100258.69;;;20.89;35.47
73518;BME280;61766;60.318;25.044;2023-07-22T12:05:24;100254.50;;;20.81;35.54
73518;BME280;61766;60.318;25.044;2023-07-22T12:07:48;100250.11;;;21.39;34.80
73518;BME280;61766;60.318;25.044;2023-07-22T12:10:15;100251.65;;;20.20;35.54
73518;BME280;61766;60.318;25.044;2023-07-22T12:12:41;100241.46;;;21.90;34.04
73518;BME280;61766;60.318;25.044;2023-07-22T12:15:09;100249.44;;;21.37;34.04
73518;BME280;61766;60.318;25.044;2023-07-22T12:19:56;100242.47;;;22.43;32.69
73518;BME280;61766;60.318;25.044;2023-07-22T12:22:22;100237.81;;;22.80;32.62
73518;BME280;61766;60.318;25.044;2023-07-22T12:24:50;100239.17;;;21.56;33.71
73518;BME280;61766;60.318;25.044;2023-07-22T12:27:13;100235.93;;;21.78;33.88
73518;BME280;61766;60.318;25.044;2023-07-22T12:29:39;100235.77;;;21.78;34.11
73518;BME280;61766;60.318;25.044;2023-07-22T12:32:05;100234.41;;;22.13;33.37
73518;BME280;61766;60.318;25.044;2023-07-22T12:34:30;100236.37;;;21.88;33.41